createdAt,value
2018-12-20T00:02:26.579Z,96971.23
2018-12-20T00:04:55.424Z,96968.27
2018-12-20T00:07:24.874Z,96958.20
2018-12-20T00:09:53.932Z,96962.03
2018-12-20T00:12:22.849Z,96965.26
2018-12-20T00:14:51.812Z,96967.87
2018-12-20T00:17:25.908Z,96963.87
2018-12-20T00:19:54.947Z,96961.28
2018-12-20T00:22:24.214Z,96954.66
2018-12-20T00:24:53.049Z,96958.92
2018-12-20T00:27:21.887Z,96957.77
2018-12-20T00:29:50.725Z,96964.22
2018-12-20T00:32:19.572Z,96957.72
2018-12-20T00:34:48.528Z,96965.41
2018-12-20T00:37:17.893Z,96960.50
2018-12-20T00:39:46.867Z,96966.64
2018-12-20T00:42:15.870Z,96965.38
2018-12-20T00:44:44.811Z,96963.50
2018-12-20T00:47:14.037Z,96968.34
2018-12-20T00:49:43.547Z,96963.98
2018-12-20T00:52:12.475Z,96963.20
2018-12-20T00:54:41.407Z,96961.60
2018-12-20T00:57:10.405Z,96965.86
2018-12-20T00:59:39.344Z,96958.11
2018-12-20T01:02:08.647Z,96960.49
2018-12-20T01:04:38.004Z,96958.91
2018-12-20T01:07:07.212Z,96965.22
2018-12-20T01:09:36.152Z,96961.53
2018-12-20T01:12:05.241Z,96964.58
2018-12-20T01:14:34.139Z,96966.45
2018-12-20T01:17:03.112Z,96966.86
2018-12-20T01:19:32.635Z,96970.14
2018-12-20T01:22:01.795Z,96961.41
2018-12-20T01:24:30.993Z,96967.34
2018-12-20T01:27:00.046Z,96968.05
2018-12-20T01:29:29.045Z,96966.03
2018-12-20T01:31:58.173Z,96963.84
2018-12-20T01:34:27.484Z,96965.98
2018-12-20T01:36:56.507Z,96974.39
2018-12-20T01:39:25.698Z,96971.88
2018-12-20T01:41:54.836Z,96968.51
2018-12-20T01:44:23.887Z,96970.42
2018-12-20T01:46:54.562Z,96969.16
2018-12-20T01:49:24.595Z,96965.60
2018-12-20T01:51:55.307Z,96964.58
2018-12-20T01:54:24.364Z,96958.50
2018-12-20T01:56:53.600Z,96961.80
2018-12-20T01:59:22.673Z,96961.80
2018-12-20T02:01:52.172Z,96964.81
2018-12-20T02:04:21.045Z,96962.84
2018-12-20T02:06:49.966Z,96966.77
2018-12-20T02:09:18.976Z,96966.63
2018-12-20T02:11:48.093Z,96970.25
2018-12-20T02:14:17.156Z,96964.31
2018-12-20T02:16:46.653Z,96970.81
2018-12-20T02:19:16.026Z,96967.41
2018-12-20T02:21:45.052Z,96966.75
2018-12-20T02:24:14.728Z,96974.95
2018-12-20T02:26:43.710Z,96969.21
2018-12-20T02:29:13.034Z,96965.98
2018-12-20T02:31:41.965Z,96959.45
2018-12-20T02:34:10.919Z,96951.59
2018-12-20T02:36:39.731Z,96950.28
2018-12-20T02:39:09.335Z,96946.36
2018-12-20T02:41:38.264Z,96949.07
2018-12-20T02:44:07.640Z,96944.49
2018-12-20T02:46:36.529Z,96944.73
2018-12-20T02:49:05.678Z,96945.20
2018-12-20T02:51:34.734Z,96940.47
2018-12-20T02:54:03.988Z,96937.58
2018-12-20T02:56:33.149Z,96933.19
2018-12-20T02:59:02.661Z,96933.27
2018-12-20T03:01:31.866Z,96938.09
2018-12-20T03:04:00.947Z,96937.66
2018-12-20T03:06:29.832Z,96938.87
2018-12-20T03:08:58.987Z,96928.41
2018-12-20T03:11:28.122Z,96929.95
2018-12-20T03:13:57.483Z,96929.44
2018-12-20T03:16:26.422Z,96930.45
2018-12-20T03:18:55.623Z,96928.92
2018-12-20T03:21:24.660Z,96927.23
2018-12-20T03:23:54.007Z,96918.53
2018-12-20T03:26:23.985Z,96926.14
2018-12-20T03:28:53.143Z,96922.92
2018-12-20T03:31:22.201Z,96919.89
2018-12-20T03:33:51.304Z,96914.47
2018-12-20T03:36:20.333Z,96920.77
2018-12-20T03:38:49.863Z,96912.09
2018-12-20T03:41:18.886Z,96913.44
2018-12-20T03:43:47.916Z,96913.11
2018-12-20T03:46:16.771Z,96915.64
2018-12-20T03:48:45.667Z,96914.84
2018-12-20T03:51:14.922Z,96913.81
2018-12-20T03:53:43.904Z,96915.69
2018-12-20T03:56:13.068Z,96920.34
2018-12-20T03:58:42.533Z,96918.00
2018-12-20T04:01:11.437Z,96915.15
2018-12-20T04:03:40.295Z,96918.33
2018-12-20T04:06:09.694Z,96914.45
2018-12-20T04:08:38.583Z,96917.86
2018-12-20T04:11:07.474Z,96915.98
2018-12-20T04:13:36.917Z,96912.52
2018-12-20T04:16:06.065Z,96918.12
2018-12-20T04:18:35.126Z,96916.77
2018-12-20T04:21:04.238Z,96920.83
2018-12-20T04:23:33.072Z,96924.38
2018-12-20T04:26:01.900Z,96920.17
2018-12-20T04:28:30.951Z,96916.95
2018-12-20T04:31:00.068Z,96922.18
2018-12-20T04:33:29.006Z,96923.02
2018-12-20T04:36:00.061Z,96921.71
2018-12-20T04:38:28.943Z,96918.48
2018-12-20T04:40:58.218Z,96919.14
2018-12-20T04:43:27.124Z,96916.44
2018-12-20T04:45:56.759Z,96919.52
2018-12-20T04:48:26.200Z,96911.94
2018-12-20T04:50:55.434Z,96915.45
2018-12-20T04:53:24.398Z,96913.91
2018-12-20T04:55:53.457Z,96910.11
2018-12-20T04:58:22.759Z,96915.53
2018-12-20T05:00:51.910Z,96916.88
2018-12-20T05:03:21.465Z,96910.34
2018-12-20T05:05:50.382Z,96910.84
2018-12-20T05:08:19.306Z,96916.77
2018-12-20T05:10:48.331Z,96916.05
2018-12-20T05:13:17.832Z,96916.27
2018-12-20T05:15:55.727Z,96920.95
2018-12-20T05:18:17.544Z,96911.14
2018-12-20T05:20:46.706Z,96911.22
2018-12-20T05:23:15.695Z,96918.50
2018-12-20T05:25:44.567Z,96922.89
2018-12-20T05:28:13.537Z,96923.91
2018-12-20T05:30:42.564Z,96924.80
2018-12-20T05:33:12.169Z,96925.74
2018-12-20T05:35:41.160Z,96929.11
2018-12-20T05:38:10.064Z,96931.73
2018-12-20T05:40:38.968Z,96925.70
2018-12-20T05:43:07.876Z,96930.31
2018-12-20T05:45:36.896Z,96939.75
2018-12-20T05:48:06.154Z,96944.08
2018-12-20T05:50:35.109Z,96945.06
2018-12-20T05:53:04.050Z,96942.50
2018-12-20T05:55:32.923Z,96939.58
2018-12-20T05:58:01.760Z,96942.43
2018-12-20T06:00:30.597Z,96934.81
2018-12-20T06:02:59.925Z,96937.33
2018-12-20T06:05:28.861Z,96939.78
2018-12-20T06:07:57.770Z,96936.70
2018-12-20T06:10:26.765Z,96936.30
2018-12-20T06:12:55.848Z,96940.51
2018-12-20T06:15:24.815Z,96944.53
2018-12-20T06:17:54.132Z,96950.90
2018-12-20T06:20:23.310Z,96942.26
2018-12-20T06:22:52.406Z,96942.88
2018-12-20T06:25:21.558Z,96947.38
2018-12-20T06:27:50.775Z,96956.30
2018-12-20T06:30:19.682Z,96953.18
2018-12-20T06:32:49.316Z,96953.14
2018-12-20T06:35:18.262Z,96961.41
2018-12-20T06:37:47.302Z,96952.17
2018-12-20T06:40:16.548Z,96954.69
2018-12-20T06:42:45.413Z,96958.48
2018-12-20T06:45:14.542Z,96956.25
2018-12-20T06:47:43.799Z,96953.16
2018-12-20T06:50:13.804Z,96952.23
2018-12-20T06:52:43.258Z,96959.67
2018-12-20T06:55:12.506Z,96961.73
2018-12-20T06:57:41.458Z,96960.42
2018-12-20T07:00:10.574Z,96962.57
2018-12-20T07:02:39.983Z,96962.70
2018-12-20T07:05:08.825Z,96960.23
2018-12-20T07:07:37.679Z,96971.03
2018-12-20T07:10:07.892Z,96972.85
2018-12-20T07:12:36.749Z,96978.41
2018-12-20T07:15:05.923Z,96970.41
2018-12-20T07:17:34.727Z,96974.39
2018-12-20T07:20:04.254Z,96977.76
2018-12-20T07:22:33.198Z,96973.82
2018-12-20T07:25:02.607Z,96973.92
2018-12-20T07:27:31.474Z,96984.91
2018-12-20T07:30:01.187Z,96979.95
2018-12-20T07:32:30.387Z,96984.44
2018-12-20T07:34:59.529Z,96989.87
2018-12-20T07:37:28.607Z,96991.36
2018-12-20T07:39:58.274Z,96991.63
2018-12-20T07:42:27.361Z,96990.27
2018-12-20T07:44:56.150Z,96994.34
2018-12-20T07:47:26.501Z,96992.38
2018-12-20T07:49:55.325Z,96988.11
2018-12-20T07:52:24.106Z,96992.84
2018-12-20T07:54:53.765Z,96990.03
2018-12-20T07:57:24.825Z,96989.19
2018-12-20T07:59:54.378Z,96990.68
2018-12-20T08:02:23.503Z,96991.14
2018-12-20T08:04:52.575Z,96999.28
2018-12-20T08:07:22.193Z,96994.17
2018-12-20T08:09:51.344Z,96997.25
2018-12-20T08:12:21.522Z,97005.49
2018-12-20T08:14:50.620Z,97012.51
2018-12-20T08:17:19.626Z,97012.28
2018-12-20T08:19:48.595Z,97011.15
2018-12-20T08:22:19.022Z,97022.11
2018-12-20T08:24:47.929Z,97015.97
2018-12-20T08:27:17.381Z,97014.65
2018-12-20T08:29:47.254Z,97011.86
2018-12-20T08:32:16.274Z,97024.83
2018-12-20T08:34:45.215Z,97022.52
2018-12-20T08:37:14.825Z,97021.69
2018-12-20T08:39:44.075Z,97024.12
2018-12-20T08:42:13.063Z,97026.51
2018-12-20T08:44:42.021Z,97030.52
2018-12-20T08:47:11.083Z,97030.42
2018-12-20T08:49:40.549Z,97028.45
2018-12-20T08:52:10.490Z,97034.33
2018-12-20T08:54:39.432Z,97033.25
2018-12-20T08:57:09.712Z,97036.61
2018-12-20T08:59:38.727Z,97033.23
2018-12-20T09:02:07.502Z,97035.80
2018-12-20T09:04:37.469Z,97040.29
2018-12-20T09:07:06.728Z,97041.66
2018-12-20T09:09:35.654Z,97043.59
2018-12-20T09:12:04.718Z,97039.72
2018-12-20T09:14:34.004Z,97039.00
2018-12-20T09:17:04.411Z,97046.98
2018-12-20T09:19:40.949Z,97051.30
2018-12-20T09:22:13.166Z,97044.37
2018-12-20T09:24:45.210Z,97043.47
2018-12-20T09:27:22.405Z,97045.02
2018-12-20T09:29:51.506Z,97044.47
2018-12-20T09:32:20.329Z,97047.58
2018-12-20T09:34:49.307Z,97045.34
2018-12-20T09:37:18.378Z,97047.34
2018-12-20T09:39:48.917Z,97046.41
2018-12-20T09:42:18.414Z,97048.90
2018-12-20T09:44:47.711Z,97048.09
2018-12-20T09:47:21.576Z,97039.75
2018-12-20T09:49:50.569Z,97040.91
2018-12-20T09:52:19.733Z,97037.48
2018-12-20T09:54:48.879Z,97039.55
2018-12-20T09:57:17.887Z,97041.23
2018-12-20T09:59:53.433Z,97045.31
2018-12-20T10:02:22.621Z,97046.86
2018-12-20T10:04:52.963Z,97047.83
2018-12-20T10:07:22.074Z,97041.75
2018-12-20T10:09:51.142Z,97042.14
2018-12-20T10:12:20.132Z,97039.45
2018-12-20T10:14:49.350Z,97036.97
2018-12-20T10:17:19.948Z,97042.72
2018-12-20T10:19:50.482Z,97036.52
2018-12-20T10:22:20.114Z,97037.48
2018-12-20T10:24:49.141Z,97029.20
2018-12-20T10:27:18.324Z,97032.95
2018-12-20T10:29:47.354Z,97033.47
2018-12-20T10:32:16.154Z,97029.75
2018-12-20T10:34:46.561Z,97031.02
2018-12-20T10:37:18.951Z,97031.41
2018-12-20T10:39:56.460Z,97028.91
2018-12-20T10:42:25.559Z,97034.02
2018-12-20T10:44:54.336Z,97033.80
2018-12-20T10:47:29.273Z,97031.59
2018-12-20T10:49:58.002Z,97029.33
2018-12-20T10:52:27.449Z,97025.06
2018-12-20T10:54:56.334Z,97028.07
2018-12-20T10:57:25.229Z,97023.55
2018-12-20T10:59:54.842Z,97020.34
2018-12-20T11:02:29.053Z,97023.38
2018-12-20T11:05:02.450Z,97022.34
2018-12-20T11:07:36.874Z,97018.88
2018-12-20T11:10:12.650Z,97016.59
2018-12-20T11:12:47.314Z,97009.22
2018-12-20T11:15:17.833Z,97008.02
2018-12-20T11:17:47.251Z,97005.47
2018-12-20T11:20:19.589Z,97008.44
2018-12-20T11:22:50.579Z,97004.82
2018-12-20T11:25:20.185Z,97000.81
2018-12-20T11:27:49.046Z,97004.05
2018-12-20T11:30:18.085Z,96996.09
2018-12-20T11:32:46.917Z,97002.16
2018-12-20T11:35:17.286Z,97005.47
2018-12-20T11:37:46.382Z,97005.56
2018-12-20T11:40:16.650Z,97003.89
2018-12-20T11:42:45.973Z,97000.45
2018-12-20T11:45:16.680Z,97001.72
2018-12-20T11:47:46.067Z,97004.20
2018-12-20T11:50:15.928Z,96999.64
2018-12-20T11:52:45.419Z,96998.36
2018-12-20T11:55:14.412Z,96990.85
2018-12-20T11:57:43.254Z,96996.09
2018-12-20T12:00:12.493Z,96995.84
2018-12-20T12:02:41.775Z,96998.87
2018-12-20T12:05:10.978Z,96991.76
2018-12-20T12:07:40.436Z,96994.41
2018-12-20T12:10:09.291Z,96993.89
2018-12-20T12:12:38.117Z,96995.84
2018-12-20T12:15:08.116Z,96994.60
2018-12-20T12:17:37.571Z,96997.52
2018-12-20T12:20:07.860Z,96998.45
2018-12-20T12:22:36.654Z,96995.77
2018-12-20T12:25:06.389Z,96992.41
2018-12-20T12:27:35.809Z,96986.78
2018-12-20T12:30:05.299Z,96987.09
2018-12-20T12:32:34.749Z,96994.11
2018-12-20T12:35:03.666Z,96988.91
2018-12-20T12:37:32.833Z,96986.70
2018-12-20T12:40:01.631Z,96988.16
2018-12-20T12:42:30.506Z,96993.39
2018-12-20T12:44:59.357Z,96997.41
2018-12-20T12:47:33.810Z,96993.42
2018-12-20T12:50:02.710Z,96996.88
2018-12-20T12:52:31.498Z,96999.35
2018-12-20T12:55:00.587Z,97000.19
2018-12-20T12:57:29.366Z,96997.20
2018-12-20T12:59:58.154Z,97000.21
2018-12-20T13:02:27.638Z,96998.63
2018-12-20T13:04:56.554Z,96995.79
2018-12-20T13:07:25.682Z,96992.48
2018-12-20T13:09:54.850Z,96994.27
2018-12-20T13:12:23.702Z,96996.84
2018-12-20T13:14:52.818Z,96988.89
2018-12-20T13:17:22.254Z,96988.43
2018-12-20T13:19:51.224Z,96990.30
2018-12-20T13:22:21.658Z,96987.03
2018-12-20T13:24:50.676Z,96989.53
2018-12-20T13:27:19.849Z,96990.31
2018-12-20T13:29:48.674Z,96985.17
2018-12-20T13:32:18.850Z,96982.03
2018-12-20T13:34:47.863Z,96985.27
2018-12-20T13:37:17.090Z,96986.62
2018-12-20T13:39:46.289Z,96983.39
2018-12-20T13:42:15.951Z,96987.66
2018-12-20T13:44:45.690Z,96986.41
2018-12-20T13:47:14.717Z,96986.41
2018-12-20T13:49:43.598Z,96981.97
2018-12-20T13:52:13.402Z,96980.61
2018-12-20T13:54:42.220Z,96978.16
2018-12-20T13:57:11.691Z,96978.41
2018-12-20T13:59:41.058Z,96975.25
2018-12-20T14:02:10.317Z,96976.21
2018-12-20T14:04:39.694Z,96970.80
2018-12-20T14:07:08.650Z,96974.16
2018-12-20T14:10:12.387Z,96974.67
2018-12-20T14:12:42.406Z,96971.44
2018-12-20T14:15:18.248Z,96970.73
2018-12-20T14:17:57.723Z,96966.01
2018-12-20T14:20:43.517Z,96977.91
2018-12-20T14:23:17.908Z,96977.59
2018-12-20T14:25:47.809Z,96981.54
2018-12-20T14:28:16.909Z,96985.71
2018-12-20T14:30:45.722Z,96974.94
2018-12-20T14:33:14.734Z,96978.82
2018-12-20T14:35:44.032Z,96973.88
2018-12-20T14:38:13.041Z,96984.75
2018-12-20T14:40:42.161Z,96976.27
2018-12-20T14:43:11.117Z,96980.60
2018-12-20T14:45:40.202Z,96986.88
2018-12-20T14:48:11.044Z,96997.00
2018-12-20T14:50:40.280Z,96995.77
2018-12-20T14:53:09.107Z,97004.76
2018-12-20T14:55:37.917Z,96999.32
2018-12-20T14:58:06.783Z,97000.97
2018-12-20T15:00:35.619Z,97004.80
2018-12-20T15:03:04.458Z,96997.75
2018-12-20T15:05:33.780Z,97005.73
2018-12-20T15:08:02.595Z,97000.84
2018-12-20T15:10:31.622Z,97000.66
2018-12-20T15:13:00.932Z,97005.44
2018-12-20T15:15:29.778Z,97003.69
2018-12-20T15:17:58.602Z,97004.59
2018-12-20T15:20:27.753Z,97004.98
2018-12-20T15:22:56.951Z,97003.02
2018-12-20T15:25:26.257Z,97005.77
2018-12-20T15:27:55.386Z,97010.58
2018-12-20T15:30:24.282Z,97011.84
2018-12-20T15:32:53.241Z,97019.66
2018-12-20T15:35:22.073Z,97018.11
2018-12-20T15:37:51.363Z,97016.83
2018-12-20T15:40:20.250Z,97019.02
2018-12-20T15:42:49.143Z,97008.16
2018-12-20T15:45:18.625Z,97016.02
2018-12-20T15:47:47.461Z,97017.05
2018-12-20T15:50:17.470Z,97023.61
2018-12-20T15:52:46.477Z,97025.81
2018-12-20T15:55:15.650Z,97031.76
2018-12-20T15:57:45.662Z,97036.38
2018-12-20T16:00:16.014Z,97031.98
2018-12-20T16:02:44.855Z,97036.70
2018-12-20T16:05:13.718Z,97037.23
2018-12-20T16:07:42.824Z,97044.44
2018-12-20T16:10:11.762Z,97039.27
2018-12-20T16:12:41.079Z,97037.58
2018-12-20T16:15:09.918Z,97038.33
2018-12-20T16:17:38.744Z,97045.28
2018-12-20T16:20:08.869Z,97047.45
2018-12-20T16:22:37.690Z,97050.71
2018-12-20T16:25:07.724Z,97048.52
2018-12-20T16:27:37.534Z,97057.80
2018-12-20T16:30:08.262Z,97055.50
2018-12-20T16:32:37.143Z,97060.66
2018-12-20T16:35:06.770Z,97068.11
2018-12-20T16:37:35.944Z,97063.70
2018-12-20T16:40:05.707Z,97068.98
2018-12-20T16:42:35.494Z,97066.75
2018-12-20T16:45:05.549Z,97070.69
2018-12-20T16:47:34.374Z,97076.26
2018-12-20T16:50:03.224Z,97079.66
2018-12-20T16:52:33.710Z,97077.66
2018-12-20T16:55:04.575Z,97079.84
2018-12-20T16:57:35.069Z,97076.42
2018-12-20T17:00:05.604Z,97076.97
2018-12-20T17:02:34.938Z,97075.23
2018-12-20T17:05:03.914Z,97074.58
2018-12-20T17:07:32.890Z,97067.53
2018-12-20T17:10:02.268Z,97069.41
2018-12-20T17:12:31.567Z,97074.00
2018-12-20T17:15:00.446Z,97075.16
2018-12-20T17:17:29.946Z,97071.51
2018-12-20T17:19:58.973Z,97082.95
2018-12-20T17:22:28.909Z,97078.88
2018-12-20T17:25:01.451Z,97078.98
2018-12-20T17:27:30.290Z,97088.94
2018-12-20T17:29:59.185Z,97085.83
2018-12-20T17:32:27.993Z,97083.83
2018-12-20T17:34:59.714Z,97083.73
2018-12-20T17:37:30.803Z,97088.25
2018-12-20T17:39:59.634Z,97075.70
2018-12-20T17:42:28.610Z,97082.82
2018-12-20T17:44:57.464Z,97087.41
2018-12-20T17:47:26.517Z,97087.02
2018-12-20T17:49:55.343Z,97086.83
2018-12-20T17:52:24.714Z,97077.92
2018-12-20T17:54:53.662Z,97079.93
2018-12-20T17:57:22.598Z,97078.38
2018-12-20T17:59:51.418Z,97075.55
2018-12-20T18:02:20.234Z,97080.58
2018-12-20T18:04:49.197Z,97077.02
2018-12-20T18:07:18.806Z,97070.12
2018-12-20T18:09:50.527Z,97076.39
2018-12-20T18:12:19.638Z,97073.73
2018-12-20T18:14:48.563Z,97083.12
2018-12-20T18:17:17.566Z,97078.84
2018-12-20T18:19:46.736Z,97063.91
2018-12-20T18:22:16.002Z,97065.59
2018-12-20T18:24:45.173Z,97062.23
2018-12-20T18:27:14.041Z,97068.11
2018-12-20T18:29:42.925Z,97074.28
2018-12-20T18:32:12.090Z,97071.56
2018-12-20T18:34:41.366Z,97066.95
2018-12-20T18:37:10.213Z,97066.55
2018-12-20T18:39:39.149Z,97068.43
2018-12-20T18:42:08.178Z,97073.67
2018-12-20T18:44:37.186Z,97070.41
2018-12-20T18:47:06.067Z,97070.88
2018-12-20T18:49:35.276Z,97073.20
2018-12-20T18:52:04.191Z,97076.64
2018-12-20T18:54:33.906Z,97077.16
2018-12-20T18:57:02.731Z,97078.02
2018-12-20T18:59:31.720Z,97076.59
2018-12-20T19:02:00.550Z,97079.41
2018-12-20T19:04:29.872Z,97082.73
2018-12-20T19:06:58.693Z,97069.13
2018-12-20T19:09:27.498Z,97081.58
2018-12-20T19:11:56.333Z,97082.13
2018-12-20T19:14:25.160Z,97093.23
2018-12-20T19:16:53.988Z,97100.12
2018-12-20T19:19:23.148Z,97095.67
2018-12-20T19:21:51.970Z,97101.39
2018-12-20T19:24:20.926Z,97098.00
2018-12-20T19:26:50.985Z,97093.67
2018-12-20T19:29:20.211Z,97092.95
2018-12-20T19:31:49.039Z,97092.95
2018-12-20T19:34:18.366Z,97094.73
2018-12-20T19:36:47.218Z,97098.30
2018-12-20T19:39:17.628Z,97094.44
2018-12-20T19:41:47.153Z,97093.50
2018-12-20T19:44:17.270Z,97096.41
2018-12-20T19:46:46.194Z,97097.45
2018-12-20T19:49:14.999Z,97093.50
2018-12-20T19:51:44.082Z,97092.98
2018-12-20T19:54:12.910Z,97094.00
2018-12-20T19:56:41.739Z,97088.53
2018-12-20T19:59:10.548Z,97099.21
2018-12-20T20:01:39.719Z,97092.52
2018-12-20T20:04:08.529Z,97090.88
2018-12-20T20:06:37.407Z,97096.39
2018-12-20T20:09:07.813Z,97097.23
2018-12-20T20:11:36.632Z,97097.16
2018-12-20T20:14:05.782Z,97105.09
2018-12-20T20:16:35.131Z,97093.80
2018-12-20T20:19:04.094Z,97093.38
2018-12-20T20:21:33.290Z,97087.13
2018-12-20T20:24:02.308Z,97081.31
2018-12-20T20:26:31.214Z,97081.29
2018-12-20T20:29:00.466Z,97085.00
2018-12-20T20:31:29.479Z,97082.80
2018-12-20T20:33:58.389Z,97083.86
2018-12-20T20:36:27.317Z,97079.83
2018-12-20T20:42:21.436Z,97083.44
2018-12-20T20:44:50.970Z,97078.88
2018-12-20T20:47:20.278Z,97073.87
2018-12-20T20:49:49.089Z,97069.87
2018-12-20T20:52:18.175Z,97074.91
2018-12-20T20:54:48.505Z,97069.16
2018-12-20T20:57:18.426Z,97073.59
2018-12-20T20:59:51.059Z,97067.59
2018-12-20T21:02:19.431Z,97072.60
2018-12-20T21:04:49.057Z,97065.24
2018-12-20T21:07:17.823Z,97071.72
2018-12-20T21:09:47.430Z,97073.40
2018-12-20T21:12:22.863Z,97072.56
2018-12-20T21:14:52.300Z,97067.28
2018-12-20T21:17:18.942Z,97068.08
2018-12-20T21:19:50.223Z,97070.57
2018-12-20T21:22:19.228Z,97082.61
2018-12-20T21:24:48.195Z,97068.69
2018-12-20T21:27:17.038Z,97079.58
2018-12-20T21:29:46.261Z,97077.17
2018-12-20T21:32:15.818Z,97078.73
2018-12-20T21:34:45.041Z,97082.42
2018-12-20T21:37:14.043Z,97074.36
2018-12-20T21:39:43.221Z,97079.48
2018-12-20T21:42:12.129Z,97075.13
2018-12-20T21:44:41.338Z,97075.96
2018-12-20T21:47:10.358Z,97075.03
2018-12-20T21:49:40.409Z,97073.44
2018-12-20T21:52:11.393Z,97078.88
2018-12-20T21:54:40.942Z,97080.03
2018-12-20T21:57:10.465Z,97084.30
2018-12-20T21:59:40.545Z,97076.86
2018-12-20T22:02:09.808Z,97068.90
2018-12-20T22:04:38.907Z,97080.20
2018-12-20T22:07:08.300Z,97068.16
2018-12-20T22:09:37.235Z,97078.40
2018-12-20T22:12:06.280Z,97085.91
2018-12-20T22:14:35.407Z,97081.73
2018-12-20T22:17:04.164Z,97085.07
2018-12-20T22:19:32.909Z,97085.49
2018-12-20T22:22:01.840Z,97087.05
2018-12-20T22:24:30.841Z,97084.01
2018-12-20T22:26:59.600Z,97078.96
2018-12-20T22:29:28.694Z,97073.43
2018-12-20T22:31:57.509Z,97078.09
2018-12-20T22:34:26.753Z,97081.46
2018-12-20T22:36:56.150Z,97077.97
2018-12-20T22:39:25.257Z,97082.47
2018-12-20T22:41:54.751Z,97081.30
2018-12-20T22:44:24.450Z,97092.89
2018-12-20T22:46:53.226Z,97084.41
2018-12-20T22:49:21.981Z,97079.40
2018-12-20T22:51:51.168Z,97085.67
2018-12-20T22:54:20.644Z,97076.62
2018-12-20T22:56:49.685Z,97081.31
2018-12-20T22:59:20.911Z,97075.61
2018-12-20T23:01:49.853Z,97077.20
2018-12-20T23:04:19.004Z,97069.95
2018-12-20T23:06:49.162Z,97076.23
2018-12-20T23:09:18.743Z,97076.42
2018-12-20T23:11:48.405Z,97074.83
2018-12-20T23:14:17.278Z,97068.23
2018-12-20T23:16:53.462Z,97070.82
2018-12-20T23:19:17.054Z,97063.28
2018-12-20T23:21:45.805Z,97065.00
2018-12-20T23:24:15.179Z,97065.38
2018-12-20T23:26:43.938Z,97056.30
2018-12-20T23:29:12.970Z,97053.25
2018-12-20T23:31:42.370Z,97052.60
2018-12-20T23:34:11.102Z,97048.40
2018-12-20T23:36:39.788Z,97042.22
2018-12-20T23:39:08.528Z,97035.81
2018-12-20T23:41:38.065Z,97032.97
2018-12-20T23:44:06.797Z,97030.77
2018-12-20T23:46:35.828Z,97030.34
2018-12-20T23:49:04.617Z,97021.23
2018-12-20T23:51:33.335Z,97021.42
2018-12-20T23:54:02.213Z,97016.92
2018-12-20T23:56:30.946Z,97023.58
2018-12-20T23:58:59.677Z,97024.47
